Monday, February 18, 2019, 5:23 AM EST
Back to Local

KSFM, Sanford, Sanford Regional Airport

Location: Sanford, ME, United States Lat: 43.4
Local Time: 5:23 AM EST (10:23 GMT) Lon: -70.717
Time Zone: US/Eastern Elev: 242 ft

Show me the last for .
Show Decoded

2019-02-18 04:28 METAR KSFM 180928Z AUTO 03005KT 8SM BKN019 OVC038 M04/M08 A2995 RMK AO2 SNE20
                 FZRANO PNO $ =
2019-02-18 03:54 METAR KSFM 180854Z AUTO 02006KT 9SM -SN FEW028 BKN038 OVC060 M04/M07 A2994 RMK
                 AO2 SNB00 PRESFR FZRANO PNO $ =
2019-02-18 03:18 METAR KSFM 180818Z AUTO 03003KT 7SM -SN BKN026 BKN032 OVC048 M04/M07 A2996 RMK
                 AO2 SNB00 FZRANO PNO $ =
2019-02-18 02:56 METAR KSFM 180756Z AUTO 02004KT 10SM FEW029 BKN080 M04/M07 A2996 RMK AO2 SLP152
                 T10391072 FZRANO PNO $ =
2019-02-18 01:56 METAR KSFM 180656Z AUTO 04003KT 10SM SCT040 BKN050 OVC060 M04/M07 A2999 RMK AO2
                 SLP162 T10391072 FZRANO PNO $ =
2019-02-18 00:56 METAR KSFM 180556Z AUTO 02003KT 10SM SCT070 M04/M07 A3001 RMK AO2 SLP167 6////
                 T10391072 11039 21056 58007 FZRANO PNO $ =
2019-02-17 23:56 METAR KSFM 180456Z AUTO 35003KT 10SM BKN075 M04/M07 A3003 RMK AO2 SLP175
                 T10391072 FZRANO PNO $ =
2019-02-17 22:56 METAR KSFM 180356Z AUTO 00000KT 10SM SCT100 M05/M08 A3003 RMK AO2 SLP176
                 T10501078 400001133 FZRANO PNO $ =
2019-02-17 21:56 METAR KSFM 180256Z AUTO 00000KT 10SM FEW100 M05/M08 A3003 RMK AO2 SLP176 6////
                 T10501078 58008 FZRANO PNO $ =
2019-02-17 20:56 METAR KSFM 180156Z AUTO 00000KT 10SM SCT110 M04/M07 A3005 RMK AO2 SLP182
                 T10441072 FZRANO PNO $ =
2019-02-17 19:56 METAR KSFM 180056Z AUTO 23003KT 10SM BKN120 M04/M09 A3006 RMK AO2 SLP186
                 T10441089 FZRANO PNO $ =
2019-02-17 18:56 METAR KSFM 172356Z AUTO 00000KT 10SM CLR M04/M09 A3005 RMK AO2 SLP184 6////
                 T10441089 10000 21044 56002 FZRANO PNO $ =
2019-02-17 17:56 METAR KSFM 172256Z AUTO 00000KT 10SM CLR M03/M09 A3006 RMK AO2 SLP185 T10331094
                 FZRANO PNO $ =
2019-02-17 16:56 METAR KSFM 172156Z AUTO 13005KT 10SM CLR M02/M09 A3004 RMK AO2 SLP179 T10171094
                 FZRANO PNO $ =
2019-02-17 15:56 METAR KSFM 172056Z AUTO 21003KT 10SM CLR M01/M13 A3006 RMK AO2 SLP185 6////
                 T10061128 58005 FZRANO PNO $ =
2019-02-17 14:56 METAR KSFM 171956Z AUTO VRB05KT 10SM CLR M01/M13 A3008 RMK AO2 SLP193 T10061128
                 FZRANO PNO $ =
2019-02-17 13:56 METAR KSFM 171856Z AUTO 23004KT 10SM CLR 00/M12 A3005 RMK AO2 SLP183 T00001122
                 FZRANO PNO $ =
2019-02-17 12:56 METAR KSFM 171756Z AUTO 27005KT 10SM CLR M01/M13 A3007 RMK AO2 SLP190 6////
                 T10111133 11006 21133 58017 FZRANO PNO $ =
2019-02-17 11:56 METAR KSFM 171656Z AUTO 00000KT 10SM CLR M02/M13 A3009 RMK AO2 SLP196 T10221133
                 FZRANO PNO $ =
2019-02-17 10:56 METAR KSFM 171556Z AUTO 01004KT 10SM CLR M04/M13 A3011 RMK AO2 SLP202 T10391128
                 FZRANO PNO $ =
2019-02-17 09:56 METAR KSFM 171456Z AUTO 04003KT 10SM CLR M05/M13 A3012 RMK AO2 SLP207 6////
                 T10501133 51019 FZRANO PNO $ =
2019-02-17 08:56 METAR KSFM 171356Z AUTO 35003KT 10SM CLR M06/M13 A3012 RMK AO2 SLP205 T10611133
                 FZRANO PNO $ =
2019-02-17 07:56 METAR KSFM 171256Z AUTO 00000KT 10SM CLR M08/M14 A3009 RMK AO2 SLP195 T10781139
                 FZRANO PNO $ =
2019-02-17 06:56 METAR KSFM 171156Z AUTO 00000KT 10SM CLR M13/M15 A3007 RMK AO2 SLP189 6////
                 7//// T11331150 11061 21133 51020 FZRANO PNO $ =
2019-02-17 05:56 METAR KSFM 171056Z AUTO 29003KT 10SM CLR M11/M13 A3005 RMK AO2 SLP184 T11111133
                 FZRANO PNO $ =

Support USWX by starting your Amazon purchase here.